Time;durP1;ratioP1;P1;durP2;ratioP2;P2;SDS_P1;SDS_P2;PMS_P1;PMS_P2;Temp;Humidity;BMP_temperature;BMP_pressure;BME280_temperature;BME280_humidity;BME280_pressure;Samples;Min_cycle;Max_cycle;Signal;HPM_P1;HPM_P2
2023/05/01 00:00:34;;;;;;;;;;;19.50;49.60;;;;;;6269870;28;19916;-70
2023/05/01 00:03:36;;;;;;;;;;;19.50;49.80;;;;;;6270153;28;19909;-70
2023/05/01 00:06:36;;;;;;;;;;;19.50;49.80;;;;;;6268109;28;19912;-70
2023/05/01 00:09:37;;;;;;;;;;;19.50;49.80;;;;;;6270116;28;20026;-70
2023/05/01 00:12:38;;;;;;;;;;;19.50;49.90;;;;;;6269655;28;19963;-70
2023/05/01 00:15:42;;;;;;;;;;;19.50;50.00;;;;;;6269483;28;19991;-70
2023/05/01 00:18:43;;;;;;;;;;;19.50;50.00;;;;;;6269775;28;19959;-71
2023/05/01 00:21:47;;;;;;;;;;;19.50;50.00;;;;;;6269696;28;19968;-69
2023/05/01 00:24:48;;;;;;;;;;;19.50;50.00;;;;;;6269309;28;19909;-70
2023/05/01 00:27:49;;;;;;;;;;;19.40;50.00;;;;;;6269867;28;19912;-70
2023/05/01 00:30:50;;;;;;;;;;;19.40;50.00;;;;;;6269548;28;19963;-70
2023/05/01 00:33:51;;;;;;;;;;;19.40;50.00;;;;;;6268068;28;19956;-70
2023/05/01 00:36:52;;;;;;;;;;;19.40;49.80;;;;;;6269353;28;19913;-70
2023/05/01 00:39:52;;;;;;;;;;;19.40;49.80;;;;;;6269223;28;19956;-70
2023/05/01 00:42:53;;;;;;;;;;;19.40;50.00;;;;;;6269631;28;20027;-70
2023/05/01 00:45:54;;;;;;;;;;;19.40;50.10;;;;;;6268814;28;19954;-71
2023/05/01 00:48:57;;;;;;;;;;;19.40;50.20;;;;;;6269225;28;19921;-70
2023/05/01 00:51:58;;;;;;;;;;;19.40;51.00;;;;;;6268089;28;19909;-70
2023/05/01 00:54:59;;;;;;;;;;;19.40;50.40;;;;;;6268728;28;19917;-70
2023/05/01 00:58:00;;;;;;;;;;;19.40;50.40;;;;;;6267499;28;19916;-70
2023/05/01 01:01:01;;;;;;;;;;;19.40;50.40;;;;;;6268904;28;20137;-70
2023/05/01 01:04:01;;;;;;;;;;;19.40;50.70;;;;;;6269137;28;19935;-70
2023/05/01 01:07:20;;;;;;;;;;;19.40;50.30;;;;;;6269408;28;19995;-70
2023/05/01 01:10:36;;;;;;;;;;;19.40;50.40;;;;;;6267804;28;20003;-72
2023/05/01 01:13:45;;;;;;;;;;;19.40;50.50;;;;;;6259402;28;19948;-70
2023/05/01 01:17:06;;;;;;;;;;;19.40;50.50;;;;;;6244092;28;19913;-69
2023/05/01 01:20:18;;;;;;;;;;;19.40;50.50;;;;;;6266911;28;19932;-70
2023/05/01 01:23:34;;;;;;;;;;;19.30;50.50;;;;;;6267644;28;19909;-70
2023/05/01 01:26:53;;;;;;;;;;;19.40;50.40;;;;;;6270740;28;19913;-70
2023/05/01 01:30:08;;;;;;;;;;;19.40;50.60;;;;;;6272284;28;19997;-70
2023/05/01 01:33:24;;;;;;;;;;;19.40;50.40;;;;;;6273392;28;20487;-70
2023/05/01 01:36:45;;;;;;;;;;;19.40;50.60;;;;;;6273422;28;19952;-70
2023/05/01 01:39:45;;;;;;;;;;;19.40;50.70;;;;;;6271556;28;19909;-70
2023/05/01 01:42:50;;;;;;;;;;;19.40;50.70;;;;;;6272007;28;19909;-70
2023/05/01 01:45:56;;;;;;;;;;;19.40;50.70;;;;;;6247150;28;19959;-70
2023/05/01 01:48:57;;;;;;;;;;;19.30;50.70;;;;;;6248263;28;19917;-70
2023/05/01 01:52:00;;;;;;;;;;;19.30;50.70;;;;;;6262496;28;19913;-71
2023/05/01 01:55:06;;;;;;;;;;;19.30;50.70;;;;;;6271576;28;19970;-70
2023/05/01 01:58:07;;;;;;;;;;;19.30;50.70;;;;;;6272599;28;20330;-70
2023/05/01 02:01:08;;;;;;;;;;;19.30;50.70;;;;;;6273011;28;20004;-70
2023/05/01 02:04:10;;;;;;;;;;;19.30;50.80;;;;;;6273392;28;19909;-70
2023/05/01 02:07:11;;;;;;;;;;;19.30;50.80;;;;;;6271239;28;19916;-70
2023/05/01 02:10:13;;;;;;;;;;;19.30;50.80;;;;;;6272749;28;20007;-70
2023/05/01 02:13:15;;;;;;;;;;;19.30;50.80;;;;;;6272676;28;20357;-70
2023/05/01 02:16:16;;;;;;;;;;;19.30;50.90;;;;;;6272126;28;19962;-70
2023/05/01 02:19:18;;;;;;;;;;;19.30;50.90;;;;;;6272423;28;20298;-70
2023/05/01 02:22:19;;;;;;;;;;;19.30;50.90;;;;;;6272362;28;20525;-70
2023/05/01 02:25:21;;;;;;;;;;;19.30;50.90;;;;;;6272629;28;20293;-70
2023/05/01 02:28:23;;;;;;;;;;;19.30;50.90;;;;;;6272093;28;19912;-70
2023/05/01 02:31:23;;;;;;;;;;;19.30;51.00;;;;;;6272011;28;19913;-70
2023/05/01 02:34:24;;;;;;;;;;;19.30;51.00;;;;;;6270699;28;20459;-70
2023/05/01 02:37:25;;;;;;;;;;;19.30;51.00;;;;;;6270660;28;19920;-70
2023/05/01 02:40:26;;;;;;;;;;;19.30;51.00;;;;;;6270833;28;19912;-70
2023/05/01 02:43:31;;;;;;;;;;;19.30;51.10;;;;;;6272232;28;20285;-70
2023/05/01 02:46:35;;;;;;;;;;;19.30;51.10;;;;;;6270652;28;19961;-70
2023/05/01 02:49:36;;;;;;;;;;;19.30;51.10;;;;;;6270169;28;19917;-71
2023/05/01 02:52:37;;;;;;;;;;;19.30;51.20;;;;;;6271371;28;19909;-70
2023/05/01 02:55:38;;;;;;;;;;;19.30;51.20;;;;;;6271322;28;19927;-70
2023/05/01 02:58:39;;;;;;;;;;;19.30;51.20;;;;;;6270176;28;20275;-70
2023/05/01 03:01:41;;;;;;;;;;;19.30;51.20;;;;;;6271532;28;20385;-70
2023/05/01 03:04:42;;;;;;;;;;;19.30;51.20;;;;;;6269921;28;19924;-70
2023/05/01 03:07:43;;;;;;;;;;;19.30;51.20;;;;;;6269424;28;19955;-70
2023/05/01 03:10:44;;;;;;;;;;;19.30;51.20;;;;;;6286670;28;19916;-70
2023/05/01 03:13:46;;;;;;;;;;;19.30;51.20;;;;;;6271088;28;19912;-70
2023/05/01 03:16:47;;;;;;;;;;;19.30;51.20;;;;;;6269763;28;19909;-70
2023/05/01 03:19:48;;;;;;;;;;;19.30;51.30;;;;;;6271069;28;19908;-70
2023/05/01 03:22:49;;;;;;;;;;;19.30;51.30;;;;;;6270770;28;20355;-70
2023/05/01 03:25:50;;;;;;;;;;;19.30;51.30;;;;;;6270401;28;19962;-70
2023/05/01 03:28:51;;;;;;;;;;;19.30;51.30;;;;;;6269433;28;19913;-70
2023/05/01 03:31:51;;;;;;;;;;;19.30;51.40;;;;;;6270852;28;19963;-70
2023/05/01 03:34:52;;;;;;;;;;;19.30;51.40;;;;;;6269573;28;20393;-71
2023/05/01 03:37:52;;;;;;;;;;;19.30;51.40;;;;;;6270805;28;20427;-70
2023/05/01 03:40:54;;;;;;;;;;;19.30;51.40;;;;;;6270739;28;19913;-70
2023/05/01 03:43:55;;;;;;;;;;;19.30;51.40;;;;;;6268872;28;19916;-70
2023/05/01 03:46:55;;;;;;;;;;;19.30;51.40;;;;;;6270596;28;20274;-70
2023/05/01 03:49:56;;;;;;;;;;;19.30;51.50;;;;;;6269468;28;19917;-71
2023/05/01 03:52:57;;;;;;;;;;;19.30;51.50;;;;;;6268824;28;19909;-69
2023/05/01 03:55:58;;;;;;;;;;;19.20;51.40;;;;;;6270235;28;19963;-70
2023/05/01 03:58:58;;;;;;;;;;;19.30;51.90;;;;;;6269178;28;20358;-69
2023/05/01 04:01:59;;;;;;;;;;;19.30;49.50;;;;;;6268734;28;19920;-70
2023/05/01 04:05:00;;;;;;;;;;;19.40;49.00;;;;;;6270619;28;20267;-69
2023/05/01 04:08:00;;;;;;;;;;;19.50;48.60;;;;;;6268614;28;20008;-70
2023/05/01 04:11:01;;;;;;;;;;;19.60;48.20;;;;;;6268650;28;19938;-69
2023/05/01 04:14:01;;;;;;;;;;;19.70;48.00;;;;;;6268198;28;19917;-70
2023/05/01 04:17:02;;;;;;;;;;;19.80;47.80;;;;;;6269717;28;20020;-70
2023/05/01 04:20:05;;;;;;;;;;;19.80;47.50;;;;;;6269753;28;19915;-70
2023/05/01 04:23:06;;;;;;;;;;;19.90;47.40;;;;;;6268013;28;20384;-70
2023/05/01 04:26:07;;;;;;;;;;;19.90;47.20;;;;;;6268326;28;19915;-69
2023/05/01 04:29:07;;;;;;;;;;;20.00;47.20;;;;;;6268105;28;19913;-70
2023/05/01 04:32:08;;;;;;;;;;;19.90;46.90;;;;;;6269015;28;19909;-70
2023/05/01 04:35:11;;;;;;;;;;;20.00;46.90;;;;;;6269497;28;19996;-70
2023/05/01 04:38:11;;;;;;;;;;;20.00;46.80;;;;;;6269363;28;19909;-69
2023/05/01 04:41:12;;;;;;;;;;;20.00;46.70;;;;;;6269046;28;19944;-70
2023/05/01 04:44:13;;;;;;;;;;;20.00;46.70;;;;;;6267921;28;20007;-70
2023/05/01 04:47:13;;;;;;;;;;;20.00;46.70;;;;;;6269137;28;19916;-70
2023/05/01 04:50:14;;;;;;;;;;;20.00;46.50;;;;;;6267870;28;20007;-69
2023/05/01 04:53:15;;;;;;;;;;;20.00;46.50;;;;;;6267986;28;20276;-70
2023/05/01 04:56:15;;;;;;;;;;;20.10;46.50;;;;;;6269154;28;19935;-70
2023/05/01 04:59:16;;;;;;;;;;;20.10;47.20;;;;;;6269083;28;19959;-71
2023/05/01 05:02:17;;;;;;;;;;;20.10;46.50;;;;;;6270677;28;19916;-70
2023/05/01 05:05:18;;;;;;;;;;;20.10;46.50;;;;;;6272442;28;19909;-70
2023/05/01 05:08:18;;;;;;;;;;;20.10;46.40;;;;;;6274105;28;19915;-70
2023/05/01 05:11:19;;;;;;;;;;;20.10;46.40;;;;;;6274162;28;19908;-70
2023/05/01 05:14:20;;;;;;;;;;;20.10;46.30;;;;;;6272696;28;19912;-70
2023/05/01 05:17:20;;;;;;;;;;;20.10;46.20;;;;;;6273736;28;19915;-70
2023/05/01 05:20:21;;;;;;;;;;;20.10;46.30;;;;;;6272444;28;19913;-70
2023/05/01 05:23:22;;;;;;;;;;;20.10;46.20;;;;;;6273035;28;20035;-70
2023/05/01 05:26:23;;;;;;;;;;;20.10;46.10;;;;;;6273382;28;19919;-70
2023/05/01 05:29:24;;;;;;;;;;;20.10;46.10;;;;;;6272230;28;20369;-70
2023/05/01 05:32:25;;;;;;;;;;;20.10;46.00;;;;;;6273371;28;19958;-70
2023/05/01 05:35:26;;;;;;;;;;;20.10;46.00;;;;;;6273298;28;20393;-70
2023/05/01 05:38:27;;;;;;;;;;;20.10;46.00;;;;;;6273438;28;20312;-70
2023/05/01 05:41:27;;;;;;;;;;;20.10;46.00;;;;;;6273276;28;19909;-69
2023/05/01 05:44:28;;;;;;;;;;;20.20;46.10;;;;;;6272040;28;20023;-71
2023/05/01 05:47:28;;;;;;;;;;;20.20;46.30;;;;;;6256814;28;19952;-72
2023/05/01 05:50:29;;;;;;;;;;;20.20;46.10;;;;;;6263094;28;20011;-71
2023/05/01 05:53:30;;;;;;;;;;;20.20;45.90;;;;;;6272280;28;19967;-71
2023/05/01 05:56:30;;;;;;;;;;;20.20;45.90;;;;;;6244781;28;19909;-71
2023/05/01 05:59:31;;;;;;;;;;;20.20;45.90;;;;;;6264688;28;19913;-70
2023/05/01 06:02:32;;;;;;;;;;;20.40;45.80;;;;;;6265806;28;19913;-71
2023/05/01 06:05:33;;;;;;;;;;;20.40;45.60;;;;;;6255977;28;19908;-70
2023/05/01 06:08:35;;;;;;;;;;;20.40;45.80;;;;;;6260235;28;19909;-70
2023/05/01 06:11:36;;;;;;;;;;;20.30;45.70;;;;;;6249035;28;19996;-70
2023/05/01 06:14:36;;;;;;;;;;;20.30;45.70;;;;;;6250182;28;19959;-69
2023/05/01 06:17:37;;;;;;;;;;;20.30;45.60;;;;;;6248684;28;19944;-70
2023/05/01 06:20:38;;;;;;;;;;;20.30;45.70;;;;;;6250172;28;19919;-69
2023/05/01 06:23:38;;;;;;;;;;;20.30;45.70;;;;;;6250329;28;19951;-69
2023/05/01 06:26:39;;;;;;;;;;;20.30;45.70;;;;;;6274249;28;19909;-70
2023/05/01 06:29:40;;;;;;;;;;;20.30;45.60;;;;;;6274466;28;19909;-69
2023/05/01 06:32:42;;;;;;;;;;;20.30;45.60;;;;;;6274480;28;19909;-70
2023/05/01 06:35:43;;;;;;;;;;;20.30;45.60;;;;;;6274349;28;20407;-69
2023/05/01 06:38:47;;;;;;;;;;;20.30;45.60;;;;;;6274349;28;19905;-69
2023/05/01 06:41:48;;;;;;;;;;;20.40;45.70;;;;;;6273953;28;19912;-69
2023/05/01 06:44:48;;;;;;;;;;;20.40;45.60;;;;;;6274312;28;19967;-69
2023/05/01 06:47:49;;;;;;;;;;;20.30;45.50;;;;;;6274214;28;19909;-70
2023/05/01 06:50:50;;;;;;;;;;;20.30;45.50;;;;;;6272783;28;19916;-69
2023/05/01 06:53:50;;;;;;;;;;;20.40;45.50;;;;;;6273796;28;19921;-70
2023/05/01 06:56:54;;;;;;;;;;;20.30;45.40;;;;;;6272544;28;19909;-69
2023/05/01 06:59:55;;;;;;;;;;;20.30;45.40;;;;;;6273993;28;19913;-69
2023/05/01 07:02:55;;;;;;;;;;;20.30;45.40;;;;;;6271892;28;19916;-69
2023/05/01 07:05:56;;;;;;;;;;;20.30;45.30;;;;;;6271676;28;19940;-69
2023/05/01 07:08:57;;;;;;;;;;;20.40;45.40;;;;;;6272900;28;19908;-70
2023/05/01 07:11:58;;;;;;;;;;;20.30;45.30;;;;;;6273114;28;19909;-69
2023/05/01 07:14:58;;;;;;;;;;;20.30;45.30;;;;;;6272665;28;20323;-70
2023/05/01 07:18:01;;;;;;;;;;;20.30;45.20;;;;;;6272673;28;19909;-69
2023/05/01 07:21:02;;;;;;;;;;;20.40;45.30;;;;;;6272367;28;19913;-70
2023/05/01 07:24:03;;;;;;;;;;;20.30;45.20;;;;;;6270397;28;20303;-69
2023/05/01 07:27:04;;;;;;;;;;;20.40;45.40;;;;;;6272476;28;19909;-69
2023/05/01 07:30:05;;;;;;;;;;;20.30;45.30;;;;;;6272585;28;19909;-69
2023/05/01 07:33:05;;;;;;;;;;;20.40;45.30;;;;;;6264855;28;20388;-70
2023/05/01 07:36:06;;;;;;;;;;;20.40;45.30;;;;;;6254678;28;19940;-69
2023/05/01 07:39:07;;;;;;;;;;;20.40;45.30;;;;;;6258903;28;19909;-70
2023/05/01 07:42:07;;;;;;;;;;;20.40;45.30;;;;;;6272615;28;19977;-71
2023/05/01 07:45:09;;;;;;;;;;;20.40;45.20;;;;;;6272536;28;19909;-70
2023/05/01 07:48:09;;;;;;;;;;;20.40;45.20;;;;;;6261984;28;19995;-69
2023/05/01 07:51:10;;;;;;;;;;;20.40;45.80;;;;;;6247865;28;19905;-69
2023/05/01 07:54:13;;;;;;;;;;;20.20;46.60;;;;;;6265143;28;19916;-69
2023/05/01 07:57:14;;;;;;;;;;;20.10;47.40;;;;;;6272442;28;19952;-69
2023/05/01 08:00:15;;;;;;;;;;;20.00;47.80;;;;;;6270974;28;19917;-70
2023/05/01 08:03:16;;;;;;;;;;;20.00;48.00;;;;;;6272233;28;20348;-69
2023/05/01 08:06:17;;;;;;;;;;;20.00;48.20;;;;;;6272258;28;19917;-70
2023/05/01 08:09:17;;;;;;;;;;;19.90;48.30;;;;;;6251396;28;19909;-69
2023/05/01 08:12:18;;;;;;;;;;;19.90;48.50;;;;;;6247395;28;19913;-69
2023/05/01 08:15:20;;;;;;;;;;;19.90;48.70;;;;;;6254818;28;19917;-69
2023/05/01 08:18:21;;;;;;;;;;;19.90;48.80;;;;;;6271078;28;20007;-70
2023/05/01 08:21:21;;;;;;;;;;;19.90;48.80;;;;;;6271752;28;19919;-69
2023/05/01 08:24:22;;;;;;;;;;;19.90;48.90;;;;;;6271848;28;19913;-70
2023/05/01 08:27:22;;;;;;;;;;;19.90;48.90;;;;;;6271537;28;19908;-69
2023/05/01 08:30:23;;;;;;;;;;;19.90;48.90;;;;;;6270482;28;19963;-69
2023/05/01 08:33:24;;;;;;;;;;;19.90;49.00;;;;;;6270285;28;19924;-69
2023/05/01 08:36:25;;;;;;;;;;;19.90;49.00;;;;;;6271351;28;19909;-69
2023/05/01 08:39:26;;;;;;;;;;;19.90;49.10;;;;;;6271663;28;20426;-70
2023/05/01 08:42:27;;;;;;;;;;;19.90;49.10;;;;;;6271555;28;19912;-69
2023/05/01 08:45:29;;;;;;;;;;;19.90;49.20;;;;;;6271657;28;20019;-69
2023/05/01 08:48:31;;;;;;;;;;;19.80;49.10;;;;;;6271477;28;19913;-70
2023/05/01 08:51:33;;;;;;;;;;;19.80;49.20;;;;;;6271659;28;20058;-69
2023/05/01 08:54:35;;;;;;;;;;;19.80;49.10;;;;;;6271128;28;19924;-70
2023/05/01 08:57:36;;;;;;;;;;;19.80;49.10;;;;;;6271477;28;20393;-69
2023/05/01 09:00:38;;;;;;;;;;;19.80;49.30;;;;;;6271159;28;20000;-70
2023/05/01 09:03:39;;;;;;;;;;;19.80;49.40;;;;;;6271287;28;19935;-69
2023/05/01 09:06:39;;;;;;;;;;;19.80;49.40;;;;;;6271302;28;19952;-70
2023/05/01 09:09:40;;;;;;;;;;;19.80;49.50;;;;;;6269960;28;19951;-69
2023/05/01 09:12:43;;;;;;;;;;;19.80;49.50;;;;;;6271238;28;19916;-70
2023/05/01 09:15:44;;;;;;;;;;;19.80;49.50;;;;;;6269833;28;20004;-69
2023/05/01 09:18:44;;;;;;;;;;;19.80;49.50;;;;;;6271198;28;19905;-69
2023/05/01 09:21:45;;;;;;;;;;;19.80;49.60;;;;;;6271217;28;20313;-70
2023/05/01 09:24:46;;;;;;;;;;;19.80;49.60;;;;;;6270921;28;19908;-70
2023/05/01 09:27:47;;;;;;;;;;;19.80;49.60;;;;;;6271023;28;19999;-70
2023/05/01 09:30:47;;;;;;;;;;;19.80;49.60;;;;;;6269477;28;20350;-69
2023/05/01 09:33:55;;;;;;;;;;;19.80;49.70;;;;;;6271192;28;19913;-69
2023/05/01 09:36:56;;;;;;;;;;;19.80;49.60;;;;;;6270761;28;19909;-70
2023/05/01 09:40:14;;;;;;;;;;;19.80;49.70;;;;;;6270794;28;19920;-70
2023/05/01 09:43:25;;;;;;;;;;;19.80;49.70;;;;;;6270938;28;19948;-67
2023/05/01 09:46:26;;;;;;;;;;;19.80;49.70;;;;;;6270807;28;19991;-67
2023/05/01 09:49:56;;;;;;;;;;;19.80;49.70;;;;;;6275636;28;19917;-68
2023/05/01 09:52:57;;;;;;;;;;;19.80;49.70;;;;;;6266290;28;19916;-67
2023/05/01 09:56:01;;;;;;;;;;;19.80;49.90;;;;;;6275231;28;19909;-67
2023/05/01 09:59:15;;;;;;;;;;;19.80;49.80;;;;;;6273891;28;19944;-67
2023/05/01 10:02:29;;;;;;;;;;;19.80;49.80;;;;;;6273848;28;20338;-69
2023/05/01 10:05:41;;;;;;;;;;;19.80;49.90;;;;;;6274880;28;19917;-66
2023/05/01 10:08:45;;;;;;;;;;;19.80;49.80;;;;;;6275309;28;19909;-67
2023/05/01 10:11:47;;;;;;;;;;;19.80;49.90;;;;;;6274845;28;19909;-67
2023/05/01 10:14:54;;;;;;;;;;;19.80;49.80;;;;;;6274928;28;19922;-67
2023/05/01 10:17:55;;;;;;;;;;;19.80;49.80;;;;;;6274654;28;20393;-67
2023/05/01 10:20:56;;;;;;;;;;;19.80;49.80;;;;;;6274954;28;19909;-66
2023/05/01 10:23:57;;;;;;;;;;;19.70;49.80;;;;;;6274120;28;19916;-66
2023/05/01 10:26:59;;;;;;;;;;;19.80;49.80;;;;;;6274300;28;19963;-66
2023/05/01 10:30:03;;;;;;;;;;;19.80;49.90;;;;;;6274200;28;20384;-66
2023/05/01 10:33:04;;;;;;;;;;;19.70;49.90;;;;;;6273958;28;19908;-66
2023/05/01 10:36:08;;;;;;;;;;;19.70;49.90;;;;;;6273978;28;19956;-66
2023/05/01 10:39:27;;;;;;;;;;;19.70;49.90;;;;;;6274143;28;20011;-66
2023/05/01 10:42:28;;;;;;;;;;;19.70;50.00;;;;;;6260202;28;19925;-67
2023/05/01 10:45:29;;;;;;;;;;;19.70;49.90;;;;;;6265018;28;19967;-68
2023/05/01 10:48:43;;;;;;;;;;;19.70;49.70;;;;;;6260280;28;19995;-68
2023/05/01 10:51:56;;;;;;;;;;;19.70;50.20;;;;;;6249044;28;19917;-68
2023/05/01 10:55:21;;;;;;;;;;;19.70;50.30;;;;;;6260448;28;19921;-68
2023/05/01 10:58:39;;;;;;;;;;;19.70;50.50;;;;;;6255424;28;19974;-68
2023/05/01 11:01:41;;;;;;;;;;;19.70;50.60;;;;;;6259816;28;19912;-68
2023/05/01 11:04:47;;;;;;;;;;;19.60;50.60;;;;;;6261983;28;19913;-67
2023/05/01 11:08:08;;;;;;;;;;;19.60;50.60;;;;;;6246837;28;19909;-68
2023/05/01 11:11:18;;;;;;;;;;;19.60;50.70;;;;;;6247814;28;19917;-68
2023/05/01 11:14:18;;;;;;;;;;;19.60;50.80;;;;;;6253613;28;19921;-68
2023/05/01 11:17:49;;;;;;;;;;;19.60;50.50;;;;;;6246574;28;19909;-68
2023/05/01 11:20:50;;;;;;;;;;;19.60;50.50;;;;;;6245823;28;20347;-72
2023/05/01 11:23:51;;;;;;;;;;;19.60;50.60;;;;;;6261670;28;19910;-67
2023/05/01 11:26:51;;;;;;;;;;;19.60;50.60;;;;;;6246616;28;20411;-66
2023/05/01 11:29:52;;;;;;;;;;;19.60;50.70;;;;;;6257719;28;19924;-70
2023/05/01 11:32:53;;;;;;;;;;;19.60;50.70;;;;;;6247431;28;20004;-69
2023/05/01 11:35:59;;;;;;;;;;;19.60;50.70;;;;;;6250385;28;19917;-71
2023/05/01 11:38:59;;;;;;;;;;;19.50;50.60;;;;;;6260965;28;19909;-71
2023/05/01 11:42:09;;;;;;;;;;;19.50;50.60;;;;;;6270377;28;20328;-71
2023/05/01 11:45:10;;;;;;;;;;;19.50;50.80;;;;;;6257634;28;20286;-71
2023/05/01 11:48:16;;;;;;;;;;;19.50;50.50;;;;;;6242308;28;19941;-68
2023/05/01 11:51:18;;;;;;;;;;;19.50;50.80;;;;;;6254331;28;19917;-70
2023/05/01 11:54:18;;;;;;;;;;;19.50;50.70;;;;;;6253370;28;19996;-71
2023/05/01 11:57:21;;;;;;;;;;;19.50;50.80;;;;;;6245329;28;20135;-71
2023/05/01 12:00:29;;;;;;;;;;;19.50;50.70;;;;;;6273784;28;19924;-68
2023/05/01 12:03:39;;;;;;;;;;;19.50;50.80;;;;;;6269483;28;19908;-70
2023/05/01 12:06:45;;;;;;;;;;;19.50;50.80;;;;;;6253200;28;19963;-69
2023/05/01 12:09:46;;;;;;;;;;;19.50;50.90;;;;;;6254053;28;20366;-72
2023/05/01 12:12:47;;;;;;;;;;;19.50;50.90;;;;;;6250812;28;19919;-72
2023/05/01 12:15:51;;;;;;;;;;;19.50;50.70;;;;;;6268380;28;19912;-72
2023/05/01 12:18:52;;;;;;;;;;;19.50;50.90;;;;;;6252642;28;19993;-73
2023/05/01 12:22:06;;;;;;;;;;;19.50;50.80;;;;;;6254526;28;20027;-73
2023/05/01 12:25:07;;;;;;;;;;;19.50;50.80;;;;;;6251107;28;19921;-72
2023/05/01 12:28:09;;;;;;;;;;;19.50;51.00;;;;;;6245168;28;19941;-70
2023/05/01 12:31:12;;;;;;;;;;;19.50;50.90;;;;;;6267102;28;20369;-71
2023/05/01 12:34:12;;;;;;;;;;;19.40;50.90;;;;;;6246283;28;19963;-72
2023/05/01 12:37:13;;;;;;;;;;;19.40;50.90;;;;;;6262054;28;19909;-73
2023/05/01 12:40:14;;;;;;;;;;;19.40;50.90;;;;;;6258460;28;20047;-70
2023/05/01 12:43:15;;;;;;;;;;;19.40;50.90;;;;;;6261922;28;19924;-72
2023/05/01 12:46:16;;;;;;;;;;;19.40;50.90;;;;;;6254271;28;19936;-72
2023/05/01 12:49:17;;;;;;;;;;;19.40;51.00;;;;;;6267805;28;20385;-72
2023/05/01 12:52:25;;;;;;;;;;;19.40;51.00;;;;;;6268508;28;19913;-73
2023/05/01 12:55:26;;;;;;;;;;;19.40;51.20;;;;;;6267251;28;19913;-73
2023/05/01 12:58:36;;;;;;;;;;;19.40;51.10;;;;;;6244109;28;19915;-72
2023/05/01 13:01:36;;;;;;;;;;;19.40;51.10;;;;;;6255339;28;20562;-71
2023/05/01 13:04:38;;;;;;;;;;;19.50;51.20;;;;;;6242838;28;19909;-71
2023/05/01 13:07:39;;;;;;;;;;;19.50;51.20;;;;;;6243126;28;19913;-71
2023/05/01 13:10:40;;;;;;;;;;;19.50;51.20;;;;;;6242820;28;20424;-71
2023/05/01 13:13:44;;;;;;;;;;;19.50;51.30;;;;;;6260612;28;19935;-73
2023/05/01 13:16:45;;;;;;;;;;;19.50;51.10;;;;;;6258666;28;19909;-70
2023/05/01 13:19:51;;;;;;;;;;;19.50;51.10;;;;;;6240869;28;19932;-73
2023/05/01 13:22:52;;;;;;;;;;;19.40;51.10;;;;;;6248322;28;19951;-71
2023/05/01 13:25:55;;;;;;;;;;;19.40;51.20;;;;;;6260476;28;19912;-72
2023/05/01 13:28:56;;;;;;;;;;;19.40;51.30;;;;;;6249355;28;20359;-72
2023/05/01 13:31:57;;;;;;;;;;;19.40;51.20;;;;;;6255226;28;19916;-71
2023/05/01 13:35:01;;;;;;;;;;;19.40;51.30;;;;;;6272319;28;20255;-72
2023/05/01 13:38:02;;;;;;;;;;;19.40;51.20;;;;;;6259305;28;20413;-72
2023/05/01 13:41:03;;;;;;;;;;;19.40;51.40;;;;;;6259534;28;19913;-70
2023/05/01 13:44:05;;;;;;;;;;;19.40;51.40;;;;;;6271776;28;19908;-70
2023/05/01 13:47:06;;;;;;;;;;;19.40;51.40;;;;;;6271170;28;19997;-69
2023/05/01 13:50:11;;;;;;;;;;;19.50;51.60;;;;;;6272881;28;19924;-70
2023/05/01 13:53:13;;;;;;;;;;;19.40;51.40;;;;;;6272675;28;19917;-70
2023/05/01 13:56:14;;;;;;;;;;;19.40;51.40;;;;;;6248115;28;19936;-70
2023/05/01 13:59:14;;;;;;;;;;;19.40;51.30;;;;;;6251416;28;19923;-72
2023/05/01 14:02:28;;;;;;;;;;;19.40;51.40;;;;;;6259174;28;19914;-70
2023/05/01 14:05:28;;;;;;;;;;;19.40;51.60;;;;;;6250684;28;19913;-72
2023/05/01 14:08:29;;;;;;;;;;;19.40;50.10;;;;;;6258320;28;20055;-72
2023/05/01 14:11:30;;;;;;;;;;;19.50;49.70;;;;;;6259519;28;19916;-70
2023/05/01 14:14:31;;;;;;;;;;;19.60;49.20;;;;;;6270483;28;20388;-72
2023/05/01 14:17:33;;;;;;;;;;;19.60;48.80;;;;;;6264850;28;19910;-72
2023/05/01 14:20:34;;;;;;;;;;;19.70;48.80;;;;;;6243610;28;20285;-72
2023/05/01 14:23:35;;;;;;;;;;;19.80;48.40;;;;;;6256149;28;19916;-71
2023/05/01 14:26:38;;;;;;;;;;;19.90;48.20;;;;;;6252593;28;20318;-72
2023/05/01 14:29:40;;;;;;;;;;;19.90;48.20;;;;;;6248551;28;19913;-72
2023/05/01 14:32:41;;;;;;;;;;;19.90;47.80;;;;;;6265065;28;20328;-72
2023/05/01 14:35:46;;;;;;;;;;;19.90;47.80;;;;;;6271971;28;19958;-72
2023/05/01 14:38:48;;;;;;;;;;;19.90;47.60;;;;;;6250473;28;19999;-72
2023/05/01 14:41:48;;;;;;;;;;;20.00;47.50;;;;;;6256677;28;19913;-70
2023/05/01 14:44:49;;;;;;;;;;;20.00;47.40;;;;;;6251417;28;19916;-70
2023/05/01 14:47:49;;;;;;;;;;;20.00;47.50;;;;;;6253269;28;19916;-71
2023/05/01 14:50:51;;;;;;;;;;;20.00;47.40;;;;;;6246288;28;19971;-70
2023/05/01 14:53:52;;;;;;;;;;;20.00;47.30;;;;;;6270928;28;20341;-71
2023/05/01 14:56:52;;;;;;;;;;;20.00;47.20;;;;;;6270495;28;19942;-70
2023/05/01 14:59:53;;;;;;;;;;;20.00;47.10;;;;;;6250818;28;19913;-70
2023/05/01 15:02:54;;;;;;;;;;;20.10;47.10;;;;;;6275996;28;19918;-70
2023/05/01 15:05:55;;;;;;;;;;;20.10;47.20;;;;;;6246613;28;19913;-70
2023/05/01 15:08:56;;;;;;;;;;;20.00;47.00;;;;;;6261089;28;20363;-70
2023/05/01 15:11:57;;;;;;;;;;;20.10;47.00;;;;;;6246094;28;20040;-70
2023/05/01 15:14:57;;;;;;;;;;;20.00;47.00;;;;;;6263849;28;20779;-70
2023/05/01 15:17:58;;;;;;;;;;;20.10;47.00;;;;;;6270595;28;19952;-70
2023/05/01 15:20:59;;;;;;;;;;;20.10;47.00;;;;;;6271434;28;19999;-70
2023/05/01 15:23:59;;;;;;;;;;;20.10;46.90;;;;;;6268766;28;19909;-70
2023/05/01 15:27:00;;;;;;;;;;;20.10;46.80;;;;;;6271256;28;20286;-71
2023/05/01 15:30:01;;;;;;;;;;;20.00;46.70;;;;;;6261048;28;19913;-72
2023/05/01 15:33:02;;;;;;;;;;;20.10;46.70;;;;;;6257971;28;19999;-73
2023/05/01 15:36:03;;;;;;;;;;;20.10;46.60;;;;;;6269220;28;20012;-71
2023/05/01 15:39:10;;;;;;;;;;;20.10;46.80;;;;;;6253119;28;19916;-72
2023/05/01 15:42:10;;;;;;;;;;;20.10;46.60;;;;;;6268802;28;19908;-72
2023/05/01 15:45:11;;;;;;;;;;;20.10;46.60;;;;;;6253388;28;19909;-72
2023/05/01 15:48:11;;;;;;;;;;;20.10;46.60;;;;;;6250184;28;19928;-72
2023/05/01 15:51:12;;;;;;;;;;;20.10;46.60;;;;;;6268562;28;19928;-72
2023/05/01 15:54:13;;;;;;;;;;;20.10;46.60;;;;;;6263033;28;19920;-70
2023/05/01 15:57:16;;;;;;;;;;;20.10;46.50;;;;;;6264548;28;19909;-70
2023/05/01 16:00:17;;;;;;;;;;;20.10;46.50;;;;;;6250148;28;20297;-69
2023/05/01 16:03:18;;;;;;;;;;;20.10;46.50;;;;;;6256045;28;19916;-70
2023/05/01 16:06:18;;;;;;;;;;;20.10;46.50;;;;;;6260060;28;19957;-70
2023/05/01 16:09:20;;;;;;;;;;;20.10;46.50;;;;;;6258798;28;19915;-70
2023/05/01 16:12:20;;;;;;;;;;;20.10;46.50;;;;;;6248886;28;19991;-70
2023/05/01 16:15:21;;;;;;;;;;;20.10;46.40;;;;;;6267073;28;19962;-70
2023/05/01 16:18:23;;;;;;;;;;;20.10;46.40;;;;;;6267732;28;20357;-69
2023/05/01 16:21:25;;;;;;;;;;;20.10;46.40;;;;;;6246498;28;20063;-71
2023/05/01 16:24:26;;;;;;;;;;;20.10;46.30;;;;;;6254820;28;19916;-71
2023/05/01 16:27:27;;;;;;;;;;;20.10;46.30;;;;;;6267456;28;19916;-72
2023/05/01 16:30:28;;;;;;;;;;;20.10;46.30;;;;;;6266051;28;20419;-69
2023/05/01 16:33:28;;;;;;;;;;;20.10;46.30;;;;;;6267035;28;19917;-70
2023/05/01 16:36:29;;;;;;;;;;;20.10;46.30;;;;;;6252002;28;19909;-70
2023/05/01 16:39:29;;;;;;;;;;;20.10;46.20;;;;;;6267139;28;19917;-69
2023/05/01 16:42:32;;;;;;;;;;;20.10;46.30;;;;;;6241814;28;19988;-70
2023/05/01 16:45:32;;;;;;;;;;;20.10;46.20;;;;;;6242257;28;20451;-70
2023/05/01 16:48:33;;;;;;;;;;;20.10;46.10;;;;;;6259367;28;19921;-70
2023/05/01 16:51:34;;;;;;;;;;;20.10;46.20;;;;;;6265017;28;19913;-73
2023/05/01 16:54:35;;;;;;;;;;;20.10;46.10;;;;;;6265858;28;19963;-73
2023/05/01 16:57:35;;;;;;;;;;;20.10;46.10;;;;;;6251197;28;20344;-73
2023/05/01 17:00:36;;;;;;;;;;;20.10;46.10;;;;;;6250564;28;19915;-73
2023/05/01 17:03:37;;;;;;;;;;;20.10;46.00;;;;;;6265665;28;19971;-73
2023/05/01 17:06:37;;;;;;;;;;;20.10;46.10;;;;;;6262732;28;19910;-73
2023/05/01 17:09:38;;;;;;;;;;;20.10;46.10;;;;;;6273228;28;19912;-72
2023/05/01 17:12:39;;;;;;;;;;;20.10;46.00;;;;;;6252702;28;20008;-72
2023/05/01 17:15:40;;;;;;;;;;;20.10;46.00;;;;;;6267493;28;19921;-74
2023/05/01 17:18:41;;;;;;;;;;;20.10;46.00;;;;;;6249212;28;20338;-71
2023/05/01 17:21:42;;;;;;;;;;;20.10;46.00;;;;;;6261139;28;19909;-73
2023/05/01 17:24:42;;;;;;;;;;;20.10;46.00;;;;;;6275513;28;19923;-73
2023/05/01 17:27:43;;;;;;;;;;;20.10;46.00;;;;;;6275976;28;19919;-73
2023/05/01 17:30:43;;;;;;;;;;;20.10;46.00;;;;;;6275465;28;19908;-72
2023/05/01 17:33:44;;;;;;;;;;;20.10;45.90;;;;;;6275868;28;19912;-71
2023/05/01 17:36:45;;;;;;;;;;;20.20;46.00;;;;;;6271678;28;19928;-70
2023/05/01 17:39:46;;;;;;;;;;;20.10;45.90;;;;;;6260122;28;20018;-71